Strona główna
METAR-TAF:

Lotnisko :

Doncaster Sheffield, Anglia

Port lotniczy Doncaster/Sheffield

Szerokość geograficzna: 53-29N, Długość geograficzna: 001-00W, wysokość: 17 m

Aktualna obserwacja pogody

Raport powstał 43 minut temu, godzina 04:50 UTC
Wiatr 5 kt od południowy zachód
Temperatura 13°C
Wilgotność 94%
Ciśnienie 1022 hPa
Widzialność 10 km lub więcej
Brak chmur poniżej 1500 m i brak chmur cumulonimbus

METAR: EGCN 010450Z 23005KT CAVOK 13/12 Q1022

czas: 06:33 (05:33 UTC)

Prognoza

Raport powstał 6 godziny i 40 minut temu, godzina 22:53 UTC
Prognoza ważna od 01 godzina 00 UTC do 01 godzina 24 UTC
Wiatr 4 kt od zachód
Widzialność 10 km lub więcej
Mało chmury na wysokości 4500 ft
Prawdopodobieństwo 30%
od 01 godzina 00 UTC do 01 godzina 08 UTC
Widzialność: 7000 m
Prawdopodobieństwo 30% :
Przejściowo
od 01 godzina 22 UTC do 01 godzina 24 UTC
Widzialność: 7000 m
deszcz

TAF: EGCN 312253Z 0100/0124 26004KT 9999 FEW045 PROB30 0100/0108 7000 PROB30 TEMPO 0122/0124 7000 RA

METAR-TAF

Obserwacja i prognoza pogody dla ponad 4000 lotnisk (raport METAR i TAF).

Dostępne stacje oznaczono żółtymi i czerwonymi punktami na mapie.

Najedź kursorem aby zobaczyć nazwę stacji.

Kliknij aby zobaczyć obserwacje i prognozy pogody.

Aby zmienić mapę: kliknij na zielony przycisk z czarnym krzyżykiem, aby powiększyć; na zielony przycisk z myślnikiem, aby pomniejszyć; na zielone strzałki, aby przejść do map sąsiednich.


METAR-TAF: